Harold, Florida
Current Conditions -  °F | °C
As of 10:56 PM on Friday 26 Dec 2014 (Local Time) from KNDZ Reporting Station
Few Clouds Few Clouds  
Wind Chill: 53°   Ceiling: Unl
Heat Index: 53°   Visibility: 10mi
Dew Point: 42°   Wind: 8mph
Humidity: 66%   Direction: 120°ESE
Pressure: 30.22"   Gusts: NA
Location:  30.66°N, 86.88°W
Report Text: KNDZ 270456Z AUTO 12007KT 10SM FEW070 12/06 A3022 RMK AO2 SLP221 T01170056 $
Loading
Personal Weather Stations






























Interactive Weather Map New forecast layout! Learn more

10-Day Weather Forecast

Advertisements
Track Severe Weather on mobile